sensor_id;sensor_type;location;lat;lon;timestamp;P1;durP1;ratioP1;P2;durP2;ratioP2
15655;SDS011;7928;43.614;1.456;2023-08-17T00:00:58;4.75;;;4.28;;
15655;SDS011;7928;43.614;1.456;2023-08-17T00:03:25;4.97;;;3.67;;
15655;SDS011;7928;43.614;1.456;2023-08-17T00:05:52;4.28;;;3.67;;
15655;SDS011;7928;43.614;1.456;2023-08-17T00:08:19;4.23;;;3.83;;
15655;SDS011;7928;43.614;1.456;2023-08-17T00:10:46;4.53;;;4.10;;
15655;SDS011;7928;43.614;1.456;2023-08-17T00:13:15;3.90;;;3.60;;
15655;SDS011;7928;43.614;1.456;2023-08-17T00:15:42;4.17;;;3.87;;
15655;SDS011;7928;43.614;1.456;2023-08-17T00:18:10;5.73;;;4.30;;
15655;SDS011;7928;43.614;1.456;2023-08-17T00:20:37;5.63;;;4.00;;
15655;SDS011;7928;43.614;1.456;2023-08-17T00:23:04;6.60;;;4.20;;
15655;SDS011;7928;43.614;1.456;2023-08-17T00:25:31;4.47;;;3.63;;
15655;SDS011;7928;43.614;1.456;2023-08-17T00:27:58;4.43;;;3.90;;
15655;SDS011;7928;43.614;1.456;2023-08-17T00:30:26;4.87;;;4.20;;
15655;SDS011;7928;43.614;1.456;2023-08-17T00:32:53;4.88;;;3.88;;
15655;SDS011;7928;43.614;1.456;2023-08-17T00:35:20;4.27;;;3.50;;
15655;SDS011;7928;43.614;1.456;2023-08-17T00:37:47;4.27;;;3.87;;
15655;SDS011;7928;43.614;1.456;2023-08-17T00:40:14;4.00;;;3.70;;
15655;SDS011;7928;43.614;1.456;2023-08-17T00:42:41;6.30;;;4.22;;
15655;SDS011;7928;43.614;1.456;2023-08-17T00:45:08;4.60;;;4.20;;
15655;SDS011;7928;43.614;1.456;2023-08-17T00:47:37;4.32;;;3.92;;
15655;SDS011;7928;43.614;1.456;2023-08-17T00:50:05;6.47;;;4.50;;
15655;SDS011;7928;43.614;1.456;2023-08-17T00:52:32;4.37;;;3.97;;
15655;SDS011;7928;43.614;1.456;2023-08-17T00:55:00;4.27;;;3.97;;
15655;SDS011;7928;43.614;1.456;2023-08-17T00:57:29;5.80;;;3.67;;
15655;SDS011;7928;43.614;1.456;2023-08-17T00:59:58;4.60;;;4.13;;
15655;SDS011;7928;43.614;1.456;2023-08-17T01:02:25;4.83;;;3.87;;
15655;SDS011;7928;43.614;1.456;2023-08-17T01:04:54;6.00;;;4.27;;
15655;SDS011;7928;43.614;1.456;2023-08-17T01:07:21;5.53;;;4.00;;
15655;SDS011;7928;43.614;1.456;2023-08-17T01:09:48;4.43;;;4.03;;
15655;SDS011;7928;43.614;1.456;2023-08-17T01:12:17;6.03;;;3.73;;
15655;SDS011;7928;43.614;1.456;2023-08-17T01:14:50;3.77;;;3.47;;
15655;SDS011;7928;43.614;1.456;2023-08-17T01:17:26;6.43;;;3.67;;
15655;SDS011;7928;43.614;1.456;2023-08-17T01:20:00;5.27;;;3.83;;
15655;SDS011;7928;43.614;1.456;2023-08-17T01:22:30;5.90;;;3.67;;
15655;SDS011;7928;43.614;1.456;2023-08-17T01:25:02;4.13;;;3.60;;
15655;SDS011;7928;43.614;1.456;2023-08-17T01:27:43;4.57;;;3.63;;
15655;SDS011;7928;43.614;1.456;2023-08-17T01:30:11;5.03;;;3.47;;
15655;SDS011;7928;43.614;1.456;2023-08-17T01:32:42;5.60;;;3.63;;
15655;SDS011;7928;43.614;1.456;2023-08-17T01:35:15;4.57;;;4.00;;
15655;SDS011;7928;43.614;1.456;2023-08-17T01:37:47;4.50;;;3.77;;
15655;SDS011;7928;43.614;1.456;2023-08-17T01:40:18;4.80;;;3.73;;
15655;SDS011;7928;43.614;1.456;2023-08-17T01:42:46;4.40;;;4.00;;
15655;SDS011;7928;43.614;1.456;2023-08-17T01:45:15;3.93;;;3.53;;
15655;SDS011;7928;43.614;1.456;2023-08-17T01:47:43;5.13;;;4.30;;
15655;SDS011;7928;43.614;1.456;2023-08-17T01:50:10;4.70;;;4.30;;
15655;SDS011;7928;43.614;1.456;2023-08-17T01:52:37;5.63;;;5.00;;
15655;SDS011;7928;43.614;1.456;2023-08-17T01:55:04;7.30;;;5.17;;
15655;SDS011;7928;43.614;1.456;2023-08-17T01:57:33;5.83;;;5.17;;
15655;SDS011;7928;43.614;1.456;2023-08-17T02:00:00;5.30;;;4.80;;
15655;SDS011;7928;43.614;1.456;2023-08-17T02:02:28;5.40;;;4.47;;
15655;SDS011;7928;43.614;1.456;2023-08-17T02:04:55;5.10;;;4.60;;
15655;SDS011;7928;43.614;1.456;2023-08-17T02:07:22;4.63;;;4.23;;
15655;SDS011;7928;43.614;1.456;2023-08-17T02:09:49;4.83;;;4.30;;
15655;SDS011;7928;43.614;1.456;2023-08-17T02:12:16;4.43;;;4.03;;
15655;SDS011;7928;43.614;1.456;2023-08-17T02:14:44;4.83;;;4.20;;
15655;SDS011;7928;43.614;1.456;2023-08-17T02:17:11;4.33;;;3.83;;
15655;SDS011;7928;43.614;1.456;2023-08-17T02:19:38;6.37;;;4.63;;
15655;SDS011;7928;43.614;1.456;2023-08-17T02:22:05;5.87;;;5.00;;
15655;SDS011;7928;43.614;1.456;2023-08-17T02:24:32;4.77;;;4.27;;
15655;SDS011;7928;43.614;1.456;2023-08-17T02:26:59;4.57;;;4.17;;
15655;SDS011;7928;43.614;1.456;2023-08-17T02:29:26;5.47;;;4.60;;
15655;SDS011;7928;43.614;1.456;2023-08-17T02:31:54;6.40;;;5.20;;
15655;SDS011;7928;43.614;1.456;2023-08-17T02:34:21;6.27;;;5.20;;
15655;SDS011;7928;43.614;1.456;2023-08-17T02:36:48;5.53;;;4.97;;
15655;SDS011;7928;43.614;1.456;2023-08-17T02:39:15;6.07;;;4.97;;
15655;SDS011;7928;43.614;1.456;2023-08-17T02:41:42;6.10;;;4.80;;
15655;SDS011;7928;43.614;1.456;2023-08-17T02:44:10;4.93;;;4.53;;
15655;SDS011;7928;43.614;1.456;2023-08-17T02:46:37;5.27;;;4.80;;
15655;SDS011;7928;43.614;1.456;2023-08-17T02:49:05;6.30;;;4.90;;
15655;SDS011;7928;43.614;1.456;2023-08-17T02:51:32;7.67;;;5.43;;
15655;SDS011;7928;43.614;1.456;2023-08-17T02:53:59;5.73;;;5.20;;
15655;SDS011;7928;43.614;1.456;2023-08-17T02:56:26;6.87;;;5.17;;
15655;SDS011;7928;43.614;1.456;2023-08-17T02:58:54;5.50;;;4.93;;
15655;SDS011;7928;43.614;1.456;2023-08-17T03:01:21;5.97;;;4.93;;
15655;SDS011;7928;43.614;1.456;2023-08-17T03:03:48;6.13;;;5.03;;
15655;SDS011;7928;43.614;1.456;2023-08-17T03:06:16;5.40;;;4.90;;
15655;SDS011;7928;43.614;1.456;2023-08-17T03:08:43;5.60;;;5.07;;
15655;SDS011;7928;43.614;1.456;2023-08-17T03:11:10;5.60;;;4.70;;
15655;SDS011;7928;43.614;1.456;2023-08-17T03:13:37;5.80;;;4.93;;
15655;SDS011;7928;43.614;1.456;2023-08-17T03:16:04;5.73;;;5.00;;
15655;SDS011;7928;43.614;1.456;2023-08-17T03:18:31;5.20;;;4.80;;
15655;SDS011;7928;43.614;1.456;2023-08-17T03:20:58;6.23;;;5.63;;
15655;SDS011;7928;43.614;1.456;2023-08-17T03:23:26;6.53;;;5.43;;
15655;SDS011;7928;43.614;1.456;2023-08-17T03:25:53;6.33;;;5.10;;
15655;SDS011;7928;43.614;1.456;2023-08-17T03:28:20;6.00;;;5.20;;
15655;SDS011;7928;43.614;1.456;2023-08-17T03:30:47;7.63;;;5.30;;
15655;SDS011;7928;43.614;1.456;2023-08-17T03:33:14;6.73;;;5.43;;
15655;SDS011;7928;43.614;1.456;2023-08-17T03:35:41;5.73;;;5.20;;
15655;SDS011;7928;43.614;1.456;2023-08-17T03:38:08;6.20;;;5.57;;
15655;SDS011;7928;43.614;1.456;2023-08-17T03:40:37;8.77;;;5.50;;
15655;SDS011;7928;43.614;1.456;2023-08-17T03:43:04;6.07;;;5.50;;
15655;SDS011;7928;43.614;1.456;2023-08-17T03:45:31;7.70;;;6.30;;
15655;SDS011;7928;43.614;1.456;2023-08-17T03:47:58;6.87;;;6.13;;
15655;SDS011;7928;43.614;1.456;2023-08-17T03:50:25;7.87;;;6.03;;
15655;SDS011;7928;43.614;1.456;2023-08-17T03:52:54;7.47;;;5.63;;
15655;SDS011;7928;43.614;1.456;2023-08-17T03:55:20;6.13;;;5.53;;
15655;SDS011;7928;43.614;1.456;2023-08-17T03:57:49;6.63;;;5.87;;
15655;SDS011;7928;43.614;1.456;2023-08-17T04:00:16;7.97;;;6.43;;
15655;SDS011;7928;43.614;1.456;2023-08-17T04:02:43;7.17;;;6.47;;
15655;SDS011;7928;43.614;1.456;2023-08-17T04:05:10;7.10;;;6.00;;
15655;SDS011;7928;43.614;1.456;2023-08-17T04:07:37;8.37;;;6.83;;
15655;SDS011;7928;43.614;1.456;2023-08-17T04:10:05;7.13;;;6.43;;
15655;SDS011;7928;43.614;1.456;2023-08-17T04:12:32;7.67;;;6.93;;
15655;SDS011;7928;43.614;1.456;2023-08-17T04:15:01;7.57;;;6.27;;
15655;SDS011;7928;43.614;1.456;2023-08-17T04:17:28;7.87;;;7.07;;
15655;SDS011;7928;43.614;1.456;2023-08-17T04:19:55;6.70;;;6.00;;
15655;SDS011;7928;43.614;1.456;2023-08-17T04:22:23;7.90;;;6.13;;
15655;SDS011;7928;43.614;1.456;2023-08-17T04:24:50;7.40;;;6.37;;
15655;SDS011;7928;43.614;1.456;2023-08-17T04:27:17;6.87;;;6.27;;
15655;SDS011;7928;43.614;1.456;2023-08-17T04:29:45;7.03;;;6.43;;
15655;SDS011;7928;43.614;1.456;2023-08-17T04:32:15;7.27;;;6.67;;
15655;SDS011;7928;43.614;1.456;2023-08-17T04:34:42;7.23;;;6.30;;
15655;SDS011;7928;43.614;1.456;2023-08-17T04:37:09;7.60;;;6.80;;
15655;SDS011;7928;43.614;1.456;2023-08-17T04:39:36;6.63;;;6.07;;
15655;SDS011;7928;43.614;1.456;2023-08-17T04:42:03;7.00;;;6.27;;
15655;SDS011;7928;43.614;1.456;2023-08-17T04:44:30;6.83;;;5.97;;
15655;SDS011;7928;43.614;1.456;2023-08-17T04:46:58;7.90;;;6.60;;
15655;SDS011;7928;43.614;1.456;2023-08-17T04:49:26;6.63;;;6.03;;
15655;SDS011;7928;43.614;1.456;2023-08-17T04:51:53;10.33;;;6.10;;
15655;SDS011;7928;43.614;1.456;2023-08-17T04:54:20;7.63;;;6.37;;
15655;SDS011;7928;43.614;1.456;2023-08-17T04:56:47;6.77;;;5.57;;
15655;SDS011;7928;43.614;1.456;2023-08-17T04:59:14;7.47;;;5.43;;
15655;SDS011;7928;43.614;1.456;2023-08-17T05:01:41;8.57;;;6.13;;
15655;SDS011;7928;43.614;1.456;2023-08-17T05:04:08;6.13;;;5.50;;
15655;SDS011;7928;43.614;1.456;2023-08-17T05:06:36;6.20;;;5.60;;
15655;SDS011;7928;43.614;1.456;2023-08-17T05:09:04;7.03;;;6.00;;
15655;SDS011;7928;43.614;1.456;2023-08-17T05:11:32;5.77;;;5.17;;
15655;SDS011;7928;43.614;1.456;2023-08-17T05:13:59;5.70;;;5.20;;
15655;SDS011;7928;43.614;1.456;2023-08-17T05:16:25;5.47;;;5.07;;
15655;SDS011;7928;43.614;1.456;2023-08-17T05:18:52;7.97;;;5.80;;
15655;SDS011;7928;43.614;1.456;2023-08-17T05:21:19;6.17;;;5.67;;
15655;SDS011;7928;43.614;1.456;2023-08-17T05:23:48;6.30;;;5.53;;
15655;SDS011;7928;43.614;1.456;2023-08-17T05:26:15;6.10;;;5.47;;
15655;SDS011;7928;43.614;1.456;2023-08-17T05:28:43;6.57;;;5.85;;
15655;SDS011;7928;43.614;1.456;2023-08-17T05:31:10;6.30;;;5.70;;
15655;SDS011;7928;43.614;1.456;2023-08-17T05:33:37;7.33;;;5.33;;
15655;SDS011;7928;43.614;1.456;2023-08-17T05:36:06;7.73;;;5.27;;
15655;SDS011;7928;43.614;1.456;2023-08-17T05:38:33;5.70;;;5.20;;
15655;SDS011;7928;43.614;1.456;2023-08-17T05:41:01;9.13;;;5.80;;
15655;SDS011;7928;43.614;1.456;2023-08-17T05:43:28;5.57;;;5.07;;
15655;SDS011;7928;43.614;1.456;2023-08-17T05:45:56;5.93;;;5.30;;
15655;SDS011;7928;43.614;1.456;2023-08-17T05:48:24;5.00;;;4.43;;
15655;SDS011;7928;43.614;1.456;2023-08-17T05:50:51;8.73;;;4.63;;
15655;SDS011;7928;43.614;1.456;2023-08-17T05:53:18;7.10;;;4.10;;
15655;SDS011;7928;43.614;1.456;2023-08-17T05:55:45;5.07;;;3.67;;
15655;SDS011;7928;43.614;1.456;2023-08-17T05:58:13;4.57;;;3.77;;
15655;SDS011;7928;43.614;1.456;2023-08-17T06:00:40;7.60;;;4.60;;
15655;SDS011;7928;43.614;1.456;2023-08-17T06:03:07;8.95;;;4.03;;
15655;SDS011;7928;43.614;1.456;2023-08-17T06:05:34;8.10;;;4.50;;
15655;SDS011;7928;43.614;1.456;2023-08-17T06:08:01;5.20;;;3.80;;
15655;SDS011;7928;43.614;1.456;2023-08-17T06:10:28;5.32;;;3.95;;
15655;SDS011;7928;43.614;1.456;2023-08-17T06:12:56;9.80;;;3.83;;
15655;SDS011;7928;43.614;1.456;2023-08-17T06:15:24;7.47;;;3.90;;
15655;SDS011;7928;43.614;1.456;2023-08-17T06:17:51;5.77;;;3.73;;
15655;SDS011;7928;43.614;1.456;2023-08-17T06:20:18;7.28;;;4.53;;
15655;SDS011;7928;43.614;1.456;2023-08-17T06:22:46;6.27;;;3.73;;
15655;SDS011;7928;43.614;1.456;2023-08-17T06:25:14;7.83;;;4.23;;
15655;SDS011;7928;43.614;1.456;2023-08-17T06:27:41;6.13;;;4.00;;
15655;SDS011;7928;43.614;1.456;2023-08-17T06:30:09;5.50;;;3.80;;
15655;SDS011;7928;43.614;1.456;2023-08-17T06:32:38;6.78;;;4.40;;
15655;SDS011;7928;43.614;1.456;2023-08-17T06:35:06;7.95;;;3.88;;
15655;SDS011;7928;43.614;1.456;2023-08-17T06:37:33;10.68;;;4.55;;
15655;SDS011;7928;43.614;1.456;2023-08-17T06:40:00;7.33;;;3.47;;
15655;SDS011;7928;43.614;1.456;2023-08-17T06:42:28;6.53;;;4.50;;
15655;SDS011;7928;43.614;1.456;2023-08-17T06:44:55;6.85;;;4.15;;
15655;SDS011;7928;43.614;1.456;2023-08-17T06:47:22;8.77;;;4.77;;
15655;SDS011;7928;43.614;1.456;2023-08-17T06:49:50;7.25;;;3.90;;
15655;SDS011;7928;43.614;1.456;2023-08-17T06:52:17;7.50;;;3.80;;
15655;SDS011;7928;43.614;1.456;2023-08-17T06:54:44;5.68;;;4.38;;
15655;SDS011;7928;43.614;1.456;2023-08-17T06:57:11;7.97;;;4.27;;
15655;SDS011;7928;43.614;1.456;2023-08-17T06:59:38;6.30;;;3.95;;
15655;SDS011;7928;43.614;1.456;2023-08-17T07:02:05;8.38;;;4.05;;
15655;SDS011;7928;43.614;1.456;2023-08-17T07:04:32;6.30;;;4.67;;
15655;SDS011;7928;43.614;1.456;2023-08-17T07:07:00;6.35;;;4.40;;
15655;SDS011;7928;43.614;1.456;2023-08-17T07:09:27;5.67;;;3.97;;
15655;SDS011;7928;43.614;1.456;2023-08-17T07:11:54;7.88;;;4.25;;
15655;SDS011;7928;43.614;1.456;2023-08-17T07:14:21;9.27;;;4.55;;
15655;SDS011;7928;43.614;1.456;2023-08-17T07:16:49;5.68;;;3.72;;
15655;SDS011;7928;43.614;1.456;2023-08-17T07:19:16;6.40;;;4.10;;
15655;SDS011;7928;43.614;1.456;2023-08-17T07:21:43;5.13;;;4.00;;
15655;SDS011;7928;43.614;1.456;2023-08-17T07:24:12;6.43;;;4.03;;
15655;SDS011;7928;43.614;1.456;2023-08-17T07:26:40;5.57;;;4.07;;
15655;SDS011;7928;43.614;1.456;2023-08-17T07:29:08;6.72;;;3.92;;
15655;SDS011;7928;43.614;1.456;2023-08-17T07:31:36;7.05;;;4.55;;
15655;SDS011;7928;43.614;1.456;2023-08-17T07:34:03;4.25;;;3.80;;
15655;SDS011;7928;43.614;1.456;2023-08-17T07:36:30;4.03;;;3.63;;
15655;SDS011;7928;43.614;1.456;2023-08-17T07:38:58;5.20;;;3.92;;
15655;SDS011;7928;43.614;1.456;2023-08-17T07:41:26;7.80;;;3.80;;
15655;SDS011;7928;43.614;1.456;2023-08-17T07:43:53;4.28;;;3.65;;
15655;SDS011;7928;43.614;1.456;2023-08-17T07:46:20;6.18;;;4.13;;
15655;SDS011;7928;43.614;1.456;2023-08-17T07:48:47;6.38;;;4.68;;
15655;SDS011;7928;43.614;1.456;2023-08-17T07:51:14;4.55;;;3.70;;
15655;SDS011;7928;43.614;1.456;2023-08-17T07:53:41;6.50;;;4.45;;
15655;SDS011;7928;43.614;1.456;2023-08-17T07:56:08;5.30;;;4.20;;
15655;SDS011;7928;43.614;1.456;2023-08-17T07:58:37;8.15;;;4.18;;
15655;SDS011;7928;43.614;1.456;2023-08-17T08:01:04;4.45;;;4.03;;
15655;SDS011;7928;43.614;1.456;2023-08-17T08:03:31;4.60;;;4.13;;
15655;SDS011;7928;43.614;1.456;2023-08-17T08:05:58;5.90;;;3.80;;
15655;SDS011;7928;43.614;1.456;2023-08-17T08:08:25;5.53;;;3.92;;
15655;SDS011;7928;43.614;1.456;2023-08-17T08:10:52;5.13;;;4.03;;
15655;SDS011;7928;43.614;1.456;2023-08-17T08:13:20;8.60;;;4.55;;
15655;SDS011;7928;43.614;1.456;2023-08-17T08:15:48;5.65;;;3.75;;
15655;SDS011;7928;43.614;1.456;2023-08-17T08:18:15;6.07;;;4.28;;
15655;SDS011;7928;43.614;1.456;2023-08-17T08:20:42;4.45;;;4.05;;
15655;SDS011;7928;43.614;1.456;2023-08-17T08:23:09;6.45;;;4.22;;
15655;SDS011;7928;43.614;1.456;2023-08-17T08:25:36;4.35;;;3.95;;
15655;SDS011;7928;43.614;1.456;2023-08-17T08:28:03;4.38;;;3.78;;
15655;SDS011;7928;43.614;1.456;2023-08-17T08:30:31;4.32;;;3.70;;
15655;SDS011;7928;43.614;1.456;2023-08-17T08:32:59;5.55;;;4.07;;
15655;SDS011;7928;43.614;1.456;2023-08-17T08:35:26;6.03;;;3.65;;
15655;SDS011;7928;43.614;1.456;2023-08-17T08:37:54;4.20;;;3.78;;
15655;SDS011;7928;43.614;1.456;2023-08-17T08:40:26;4.90;;;4.03;;
15655;SDS011;7928;43.614;1.456;2023-08-17T08:42:54;6.18;;;3.63;;
15655;SDS011;7928;43.614;1.456;2023-08-17T08:45:22;5.40;;;4.50;;
15655;SDS011;7928;43.614;1.456;2023-08-17T08:47:49;6.38;;;3.80;;
15655;SDS011;7928;43.614;1.456;2023-08-17T08:50:19;5.35;;;4.18;;
15655;SDS011;7928;43.614;1.456;2023-08-17T08:52:50;5.35;;;4.00;;
15655;SDS011;7928;43.614;1.456;2023-08-17T08:55:23;4.72;;;3.80;;
15655;SDS011;7928;43.614;1.456;2023-08-17T08:57:52;6.97;;;3.42;;
15655;SDS011;7928;43.614;1.456;2023-08-17T09:00:21;7.15;;;3.70;;
15655;SDS011;7928;43.614;1.456;2023-08-17T09:02:49;4.00;;;3.58;;
15655;SDS011;7928;43.614;1.456;2023-08-17T09:05:16;5.68;;;3.78;;
15655;SDS011;7928;43.614;1.456;2023-08-17T09:07:45;3.60;;;3.30;;
15655;SDS011;7928;43.614;1.456;2023-08-17T09:10:15;4.03;;;3.17;;
15655;SDS011;7928;43.614;1.456;2023-08-17T09:12:45;4.20;;;3.15;;
15655;SDS011;7928;43.614;1.456;2023-08-17T09:15:13;3.55;;;3.22;;
15655;SDS011;7928;43.614;1.456;2023-08-17T09:17:40;3.78;;;3.17;;
15655;SDS011;7928;43.614;1.456;2023-08-17T09:20:08;4.93;;;3.30;;
15655;SDS011;7928;43.614;1.456;2023-08-17T09:22:38;4.68;;;3.28;;
15655;SDS011;7928;43.614;1.456;2023-08-17T09:25:06;3.80;;;3.38;;
15655;SDS011;7928;43.614;1.456;2023-08-17T09:27:34;2.85;;;2.45;;
15655;SDS011;7928;43.614;1.456;2023-08-17T09:30:02;5.50;;;3.03;;
15655;SDS011;7928;43.614;1.456;2023-08-17T09:32:30;4.88;;;2.83;;
15655;SDS011;7928;43.614;1.456;2023-08-17T09:35:00;5.97;;;2.90;;
15655;SDS011;7928;43.614;1.456;2023-08-17T09:37:28;2.95;;;2.65;;
15655;SDS011;7928;43.614;1.456;2023-08-17T09:39:56;3.45;;;2.42;;
15655;SDS011;7928;43.614;1.456;2023-08-17T09:42:23;3.17;;;2.58;;
15655;SDS011;7928;43.614;1.456;2023-08-17T09:44:52;3.35;;;2.40;;
15655;SDS011;7928;43.614;1.456;2023-08-17T09:47:20;3.55;;;2.65;;
15655;SDS011;7928;43.614;1.456;2023-08-17T09:49:48;5.50;;;2.72;;
15655;SDS011;7928;43.614;1.456;2023-08-17T09:52:16;3.55;;;2.95;;
15655;SDS011;7928;43.614;1.456;2023-08-17T09:54:45;3.95;;;2.95;;
15655;SDS011;7928;43.614;1.456;2023-08-17T09:57:15;3.25;;;2.95;;
15655;SDS011;7928;43.614;1.456;2023-08-17T09:59:42;3.28;;;2.50;;
15655;SDS011;7928;43.614;1.456;2023-08-17T10:02:12;2.83;;;2.63;;
15655;SDS011;7928;43.614;1.456;2023-08-17T10:04:45;5.22;;;2.70;;
15655;SDS011;7928;43.614;1.456;2023-08-17T10:07:18;2.67;;;2.47;;
15655;SDS011;7928;43.614;1.456;2023-08-17T10:09:48;3.42;;;3.08;;
15655;SDS011;7928;43.614;1.456;2023-08-17T10:12:23;3.33;;;2.53;;
15655;SDS011;7928;43.614;1.456;2023-08-17T10:14:55;4.53;;;2.60;;
15655;SDS011;7928;43.614;1.456;2023-08-17T10:17:26;2.88;;;2.63;;
15655;SDS011;7928;43.614;1.456;2023-08-17T10:19:58;2.85;;;2.53;;
15655;SDS011;7928;43.614;1.456;2023-08-17T10:22:26;5.07;;;2.83;;
15655;SDS011;7928;43.614;1.456;2023-08-17T10:24:57;4.47;;;2.45;;
15655;SDS011;7928;43.614;1.456;2023-08-17T10:27:27;4.63;;;2.67;;
15655;SDS011;7928;43.614;1.456;2023-08-17T10:29:55;2.60;;;2.40;;
15655;SDS011;7928;43.614;1.456;2023-08-17T10:32:23;3.15;;;2.45;;
15655;SDS011;7928;43.614;1.456;2023-08-17T10:34:51;3.08;;;2.88;;
15655;SDS011;7928;43.614;1.456;2023-08-17T10:37:18;4.10;;;2.90;;
15655;SDS011;7928;43.614;1.456;2023-08-17T10:39:47;2.90;;;2.58;;
15655;SDS011;7928;43.614;1.456;2023-08-17T10:42:14;4.13;;;2.67;;
15655;SDS011;7928;43.614;1.456;2023-08-17T10:44:57;2.67;;;2.40;;
15655;SDS011;7928;43.614;1.456;2023-08-17T10:47:24;3.40;;;2.60;;
15655;SDS011;7928;43.614;1.456;2023-08-17T10:49:55;3.70;;;2.47;;
15655;SDS011;7928;43.614;1.456;2023-08-17T10:52:26;3.55;;;2.60;;
15655;SDS011;7928;43.614;1.456;2023-08-17T10:54:55;2.63;;;2.40;;
15655;SDS011;7928;43.614;1.456;2023-08-17T10:57:27;4.82;;;2.78;;
15655;SDS011;7928;43.614;1.456;2023-08-17T11:00:16;4.20;;;2.60;;
15655;SDS011;7928;43.614;1.456;2023-08-17T11:02:53;5.75;;;2.72;;
15655;SDS011;7928;43.614;1.456;2023-08-17T11:05:37;3.58;;;2.47;;
15655;SDS011;7928;43.614;1.456;2023-08-17T11:08:06;4.38;;;2.75;;
15655;SDS011;7928;43.614;1.456;2023-08-17T11:10:34;5.07;;;2.95;;
15655;SDS011;7928;43.614;1.456;2023-08-17T11:13:03;3.95;;;2.40;;
15655;SDS011;7928;43.614;1.456;2023-08-17T11:15:37;2.72;;;2.38;;
15655;SDS011;7928;43.614;1.456;2023-08-17T11:18:07;4.22;;;2.40;;
15655;SDS011;7928;43.614;1.456;2023-08-17T11:20:35;2.90;;;2.70;;
15655;SDS011;7928;43.614;1.456;2023-08-17T11:23:04;3.22;;;2.53;;
15655;SDS011;7928;43.614;1.456;2023-08-17T11:25:31;2.85;;;2.35;;
15655;SDS011;7928;43.614;1.456;2023-08-17T11:27:59;3.20;;;2.58;;
15655;SDS011;7928;43.614;1.456;2023-08-17T11:30:27;3.72;;;2.53;;
15655;SDS011;7928;43.614;1.456;2023-08-17T11:32:56;7.82;;;2.75;;
15655;SDS011;7928;43.614;1.456;2023-08-17T11:35:23;5.22;;;2.75;;
15655;SDS011;7928;43.614;1.456;2023-08-17T11:37:51;2.88;;;2.58;;
15655;SDS011;7928;43.614;1.456;2023-08-17T11:40:18;2.72;;;2.42;;
15655;SDS011;7928;43.614;1.456;2023-08-17T11:42:45;2.72;;;2.38;;
15655;SDS011;7928;43.614;1.456;2023-08-17T11:45:13;2.92;;;2.60;;
15655;SDS011;7928;43.614;1.456;2023-08-17T11:47:40;5.03;;;2.78;;
15655;SDS011;7928;43.614;1.456;2023-08-17T11:50:10;5.88;;;2.47;;
15655;SDS011;7928;43.614;1.456;2023-08-17T11:52:38;4.22;;;2.80;;
15655;SDS011;7928;43.614;1.456;2023-08-17T11:55:05;3.30;;;2.80;;
15655;SDS011;7928;43.614;1.456;2023-08-17T11:57:34;5.43;;;2.67;;
15655;SDS011;7928;43.614;1.456;2023-08-17T12:00:02;3.17;;;2.70;;
15655;SDS011;7928;43.614;1.456;2023-08-17T12:02:31;3.72;;;2.60;;
15655;SDS011;7928;43.614;1.456;2023-08-17T12:05:02;4.13;;;2.83;;
15655;SDS011;7928;43.614;1.456;2023-08-17T12:07:33;5.60;;;2.60;;
15655;SDS011;7928;43.614;1.456;2023-08-17T12:10:01;2.78;;;2.47;;
15655;SDS011;7928;43.614;1.456;2023-08-17T12:12:29;5.18;;;2.80;;
15655;SDS011;7928;43.614;1.456;2023-08-17T12:14:57;3.17;;;2.67;;
15655;SDS011;7928;43.614;1.456;2023-08-17T12:17:24;4.72;;;2.50;;
15655;SDS011;7928;43.614;1.456;2023-08-17T12:19:54;3.65;;;2.70;;
15655;SDS011;7928;43.614;1.456;2023-08-17T12:22:23;2.97;;;2.60;;
15655;SDS011;7928;43.614;1.456;2023-08-17T12:24:52;3.15;;;2.85;;
15655;SDS011;7928;43.614;1.456;2023-08-17T12:27:21;3.70;;;2.58;;
15655;SDS011;7928;43.614;1.456;2023-08-17T12:29:50;3.13;;;2.70;;
15655;SDS011;7928;43.614;1.456;2023-08-17T12:32:18;4.15;;;2.60;;
15655;SDS011;7928;43.614;1.456;2023-08-17T12:34:46;4.18;;;2.70;;
15655;SDS011;7928;43.614;1.456;2023-08-17T12:37:17;8.20;;;2.53;;
15655;SDS011;7928;43.614;1.456;2023-08-17T12:39:46;2.60;;;2.40;;
15655;SDS011;7928;43.614;1.456;2023-08-17T12:42:15;2.95;;;2.50;;
15655;SDS011;7928;43.614;1.456;2023-08-17T12:44:43;2.80;;;2.47;;
15655;SDS011;7928;43.614;1.456;2023-08-17T12:47:10;3.28;;;2.75;;
15655;SDS011;7928;43.614;1.456;2023-08-17T12:49:37;2.67;;;2.45;;
15655;SDS011;7928;43.614;1.456;2023-08-17T12:52:04;2.65;;;2.30;;
15655;SDS011;7928;43.614;1.456;2023-08-17T12:54:31;3.22;;;2.50;;
15655;SDS011;7928;43.614;1.456;2023-08-17T12:56:58;4.45;;;2.35;;
15655;SDS011;7928;43.614;1.456;2023-08-17T12:59:28;2.92;;;2.33;;
15655;SDS011;7928;43.614;1.456;2023-08-17T13:01:55;2.72;;;2.42;;
15655;SDS011;7928;43.614;1.456;2023-08-17T13:04:22;3.22;;;2.60;;
15655;SDS011;7928;43.614;1.456;2023-08-17T13:06:48;2.80;;;2.50;;
15655;SDS011;7928;43.614;1.456;2023-08-17T13:09:16;3.35;;;2.50;;
15655;SDS011;7928;43.614;1.456;2023-08-17T13:11:44;5.63;;;2.70;;
15655;SDS011;7928;43.614;1.456;2023-08-17T13:14:11;4.13;;;2.70;;
15655;SDS011;7928;43.614;1.456;2023-08-17T13:16:39;4.05;;;2.33;;
15655;SDS011;7928;43.614;1.456;2023-08-17T13:19:06;5.60;;;2.67;;
15655;SDS011;7928;43.614;1.456;2023-08-17T13:21:33;3.47;;;2.72;;
15655;SDS011;7928;43.614;1.456;2023-08-17T13:24:00;4.60;;;2.47;;
15655;SDS011;7928;43.614;1.456;2023-08-17T13:26:28;3.28;;;2.28;;
15655;SDS011;7928;43.614;1.456;2023-08-17T13:28:55;2.70;;;2.45;;
15655;SDS011;7928;43.614;1.456;2023-08-17T13:31:22;2.88;;;2.53;;
15655;SDS011;7928;43.614;1.456;2023-08-17T13:33:50;3.10;;;2.50;;
15655;SDS011;7928;43.614;1.456;2023-08-17T13:36:18;3.22;;;2.60;;
15655;SDS011;7928;43.614;1.456;2023-08-17T13:38:45;2.47;;;2.25;;
15655;SDS011;7928;43.614;1.456;2023-08-17T13:41:12;4.20;;;2.70;;
15655;SDS011;7928;43.614;1.456;2023-08-17T13:43:39;4.18;;;2.58;;
15655;SDS011;7928;43.614;1.456;2023-08-17T13:46:06;3.25;;;2.35;;
15655;SDS011;7928;43.614;1.456;2023-08-17T13:48:33;3.72;;;2.70;;
15655;SDS011;7928;43.614;1.456;2023-08-17T13:51:02;2.90;;;2.45;;
15655;SDS011;7928;43.614;1.456;2023-08-17T13:53:29;2.75;;;2.55;;
15655;SDS011;7928;43.614;1.456;2023-08-17T13:55:56;4.75;;;2.45;;
15655;SDS011;7928;43.614;1.456;2023-08-17T13:58:23;2.80;;;2.58;;
15655;SDS011;7928;43.614;1.456;2023-08-17T14:00:50;4.00;;;2.80;;
15655;SDS011;7928;43.614;1.456;2023-08-17T14:03:17;5.30;;;2.67;;
15655;SDS011;7928;43.614;1.456;2023-08-17T14:05:44;4.22;;;2.50;;
15655;SDS011;7928;43.614;1.456;2023-08-17T14:08:12;5.40;;;2.33;;
15655;SDS011;7928;43.614;1.456;2023-08-17T14:10:39;4.15;;;2.47;;
15655;SDS011;7928;43.614;1.456;2023-08-17T14:13:06;2.85;;;2.20;;
15655;SDS011;7928;43.614;1.456;2023-08-17T14:15:33;2.65;;;2.35;;
15655;SDS011;7928;43.614;1.456;2023-08-17T14:18:00;2.75;;;2.53;;
15655;SDS011;7928;43.614;1.456;2023-08-17T14:20:28;4.85;;;2.97;;
15655;SDS011;7928;43.614;1.456;2023-08-17T14:22:55;4.00;;;2.55;;
15655;SDS011;7928;43.614;1.456;2023-08-17T14:25:24;3.88;;;2.50;;
15655;SDS011;7928;43.614;1.456;2023-08-17T14:27:51;2.95;;;2.40;;
15655;SDS011;7928;43.614;1.456;2023-08-17T14:30:19;3.28;;;2.53;;
15655;SDS011;7928;43.614;1.456;2023-08-17T14:32:45;3.50;;;2.42;;
15655;SDS011;7928;43.614;1.456;2023-08-17T14:35:12;3.53;;;2.40;;
15655;SDS011;7928;43.614;1.456;2023-08-17T14:37:39;5.45;;;2.95;;
15655;SDS011;7928;43.614;1.456;2023-08-17T14:40:07;3.60;;;2.40;;
15655;SDS011;7928;43.614;1.456;2023-08-17T14:42:36;4.07;;;2.53;;
15655;SDS011;7928;43.614;1.456;2023-08-17T14:45:04;3.33;;;2.60;;
15655;SDS011;7928;43.614;1.456;2023-08-17T14:47:31;4.72;;;2.80;;
15655;SDS011;7928;43.614;1.456;2023-08-17T14:49:58;4.65;;;2.47;;
15655;SDS011;7928;43.614;1.456;2023-08-17T14:52:25;3.70;;;2.35;;
15655;SDS011;7928;43.614;1.456;2023-08-17T14:54:52;3.67;;;2.80;;
15655;SDS011;7928;43.614;1.456;2023-08-17T14:57:19;2.80;;;2.42;;
15655;SDS011;7928;43.614;1.456;2023-08-17T14:59:47;3.42;;;2.28;;
15655;SDS011;7928;43.614;1.456;2023-08-17T15:02:14;4.70;;;2.25;;
15655;SDS011;7928;43.614;1.456;2023-08-17T15:04:43;5.72;;;2.78;;